Time;durP1;ratioP1;P1;durP2;ratioP2;P2;SDS_P1;SDS_P2;PMS_P1;PMS_P2;Temp;Humidity;BMP_temperature;BMP_pressure;BME280_temperature;BME280_humidity;BME280_pressure;Samples;Min_cycle;Max_cycle;Signal;HPM_P1;HPM_P2
2021/03/26 00:00:18;;;;;;;18.40;14.75;;;;;;;6.23;81.15;102009.25;5097719;28;20024;-40
2021/03/26 00:02:44;;;;;;;19.63;14.60;;;;;;;6.24;80.95;102002.03;5096725;28;20024;-40
2021/03/26 00:05:15;;;;;;;17.33;14.15;;;;;;;6.20;80.56;102009.63;5096340;28;20438;-40
2021/03/26 00:07:40;;;;;;;19.17;14.75;;;;;;;6.11;81.16;102006.09;5096977;28;20079;-40
2021/03/26 00:10:12;;;;;;;18.60;14.93;;;;;;;6.06;81.54;102000.41;5096649;28;20032;-40
2021/03/26 00:12:37;;;;;;;19.25;15.60;;;;;;;6.02;81.56;102000.94;5096512;28;20126;-40
2021/03/26 00:15:05;;;;;;;18.67;15.13;;;;;;;5.96;81.47;101994.41;5096586;28;20066;-40
2021/03/26 00:17:30;;;;;;;21.85;15.88;;;;;;;6.01;81.76;101997.41;5096418;28;20059;-40
2021/03/26 00:19:56;;;;;;;19.67;15.60;;;;;;;6.14;81.62;101984.25;5096516;28;20125;-40
2021/03/26 00:22:21;;;;;;;20.00;15.27;;;;;;;6.15;81.85;101987.81;5096584;28;20028;-40
2021/03/26 00:24:46;;;;;;;18.27;15.20;;;;;;;6.12;81.86;101982.78;5096244;28;20111;-40
2021/03/26 00:27:11;;;;;;;19.07;15.70;;;;;;;6.10;82.31;101976.72;5095850;28;20101;-40
2021/03/26 00:29:37;;;;;;;22.17;16.97;;;;;;;6.08;81.94;101989.50;5096317;28;20028;-40
2021/03/26 00:32:02;;;;;;;23.00;16.70;;;;;;;6.05;82.78;101987.16;5095872;28;20024;-40
2021/03/26 00:34:28;;;;;;;21.92;16.30;;;;;;;6.02;83.47;101982.97;5095885;28;20067;-40
2021/03/26 00:36:53;;;;;;;20.20;15.47;;;;;;;6.05;82.98;101977.28;5096097;28;20036;-40
2021/03/26 00:39:19;;;;;;;22.77;16.50;;;;;;;6.09;83.33;101983.09;5096686;28;20028;-40
2021/03/26 00:41:44;;;;;;;23.07;17.00;;;;;;;6.06;83.43;101978.94;5096052;28;20051;-40
2021/03/26 00:44:09;;;;;;;20.03;16.37;;;;;;;6.09;82.93;101975.06;5096497;28;20069;-40
2021/03/26 00:46:37;;;;;;;22.73;16.77;;;;;;;6.05;83.51;101971.91;5095868;28;20024;-40
2021/03/26 00:49:03;;;;;;;23.67;18.05;;;;;;;6.02;83.32;101971.41;5096257;28;20032;-40
2021/03/26 00:51:28;;;;;;;18.50;15.57;;;;;;;6.07;83.83;101969.88;5095838;28;20479;-41
2021/03/26 00:53:53;;;;;;;22.27;16.50;;;;;;;6.15;82.99;101972.53;5096178;28;20035;-40
2021/03/26 00:56:19;;;;;;;20.77;16.77;;;;;;;6.14;83.93;101970.00;5096261;28;20028;-40
2021/03/26 00:58:44;;;;;;;19.63;15.93;;;;;;;6.13;83.80;101960.28;5095415;28;20487;-41
2021/03/26 01:01:09;;;;;;;19.70;15.93;;;;;;;6.15;83.94;101961.78;5094799;28;20068;-41
2021/03/26 01:03:35;;;;;;;20.87;17.53;;;;;;;6.17;84.17;101962.44;5095570;28;20032;-41
2021/03/26 01:06:06;;;;;;;18.90;15.97;;;;;;;6.21;84.01;101962.94;5094752;28;20063;-41
2021/03/26 01:08:31;;;;;;;20.02;16.02;;;;;;;6.16;83.84;101952.72;5095439;28;20024;-40
2021/03/26 01:11:01;;;;;;;21.20;17.13;;;;;;;6.18;83.79;101948.00;5096064;28;20028;-40
2021/03/26 01:13:26;;;;;;;19.77;16.45;;;;;;;6.22;84.22;101943.09;5095403;28;20066;-40
2021/03/26 01:15:52;;;;;;;22.07;18.23;;;;;;;6.23;84.13;101942.09;5095448;28;20060;-40
2021/03/26 01:18:25;;;;;;;22.73;17.70;;;;;;;6.18;84.18;101949.84;5095299;28;20140;-40
2021/03/26 01:20:52;;;;;;;23.38;16.38;;;;;;;6.15;84.03;101948.34;5095136;28;20107;-40
2021/03/26 01:23:18;;;;;;;20.60;16.55;;;;;;;6.13;84.84;101938.78;5094832;28;20032;-40
2021/03/26 01:25:43;;;;;;;24.75;17.88;;;;;;;6.16;84.63;101936.59;5095549;28;20060;-40
2021/03/26 01:28:14;;;;;;;25.13;18.17;;;;;;;6.13;84.58;101934.25;5095097;28;20082;-40
2021/03/26 01:30:39;;;;;;;21.55;17.13;;;;;;;6.17;84.55;101915.94;5095168;28;20266;-40
2021/03/26 01:33:05;;;;;;;25.00;19.40;;;;;;;6.16;85.44;101925.03;5095264;28;20032;-40
2021/03/26 01:35:30;;;;;;;25.53;20.17;;;;;;;6.13;84.91;101920.81;5094916;28;20024;-40
2021/03/26 01:37:56;;;;;;;23.87;19.97;;;;;;;6.16;85.49;101920.47;5095616;28;20032;-40
2021/03/26 01:40:37;;;;;;;32.60;21.13;;;;;;;6.12;85.63;101912.94;5095153;28;20760;-40
2021/03/26 01:43:05;;;;;;;28.15;20.55;;;;;;;6.08;85.42;101912.44;5093776;28;20032;-40
2021/03/26 01:45:30;;;;;;;30.63;22.85;;;;;;;6.07;85.79;101918.00;5094670;28;20020;-40
2021/03/26 01:47:56;;;;;;;27.97;21.47;;;;;;;6.07;84.93;101909.94;5094688;28;20081;-40
2021/03/26 01:50:26;;;;;;;26.20;21.13;;;;;;;6.02;85.39;101909.66;5095281;28;20032;-40
2021/03/26 01:52:52;;;;;;;28.33;20.10;;;;;;;6.03;85.55;101912.16;5094697;28;20028;-40
2021/03/26 01:55:22;;;;;;;25.05;20.25;;;;;;;6.01;85.81;101906.13;5094551;28;20387;-41
2021/03/26 01:57:48;;;;;;;29.52;21.75;;;;;;;6.06;85.75;101908.28;5094441;28;20464;-40
2021/03/26 02:00:23;;;;;;;30.63;23.38;;;;;;;5.99;87.01;101897.38;5094406;28;20103;-41
2021/03/26 02:02:49;;;;;;;27.83;21.80;;;;;;;5.97;86.12;101898.59;5094630;28;20030;-41
2021/03/26 02:05:19;;;;;;;30.80;23.15;;;;;;;6.01;86.76;101897.22;5093440;28;20436;-41
2021/03/26 02:07:44;;;;;;;27.15;22.55;;;;;;;6.01;85.99;101889.19;5094324;28;20055;-41
2021/03/26 02:10:10;;;;;;;28.50;22.43;;;;;;;6.04;86.19;101886.13;5094851;28;20064;-41
2021/03/26 02:12:36;;;;;;;29.00;22.65;;;;;;;6.02;85.98;101883.63;5093395;28;20362;-41
2021/03/26 02:15:14;;;;;;;27.10;21.73;;;;;;;6.05;86.09;101877.06;5095038;28;20439;-41
2021/03/26 02:17:40;;;;;;;31.73;22.95;;;;;;;6.05;86.10;101874.38;5094125;28;20536;-41
2021/03/26 02:20:05;;;;;;;29.83;22.98;;;;;;;6.01;86.11;101875.75;5093085;28;20115;-41
2021/03/26 02:22:32;;;;;;;33.57;25.03;;;;;;;6.02;86.22;101869.38;5094055;28;20024;-41
2021/03/26 02:24:58;;;;;;;29.90;22.27;;;;;;;6.00;86.23;101869.53;5093984;28;20639;-41
2021/03/26 02:27:30;;;;;;;30.85;24.15;;;;;;;6.00;86.56;101869.53;5094572;28;20169;-41
2021/03/26 02:29:56;;;;;;;33.03;23.35;;;;;;;6.05;86.24;101864.50;5094253;28;20034;-41
2021/03/26 02:32:34;;;;;;;31.30;23.38;;;;;;;6.02;86.92;101864.81;5094138;28;20024;-41
2021/03/26 02:35:38;;;;;;;31.10;23.55;;;;;;;6.05;86.25;101864.50;5094695;28;20360;-41
2021/03/26 02:38:25;;;;;;;30.20;22.77;;;;;;;6.08;86.17;101865.97;5092731;28;20051;-41
2021/03/26 02:41:13;;;;;;;28.55;22.65;;;;;;;6.07;86.89;101872.34;5094058;28;20112;-41
2021/03/26 02:43:48;;;;;;;29.25;23.35;;;;;;;6.05;86.52;101866.31;5093531;28;20027;-41
2021/03/26 02:46:33;;;;;;;30.45;23.35;;;;;;;6.01;86.58;101868.53;5093589;28;20074;-41
2021/03/26 02:49:22;;;;;;;26.70;21.17;;;;;;;6.08;86.35;101865.97;5093694;28;20020;-40
2021/03/26 02:52:09;;;;;;;31.17;23.90;;;;;;;6.07;86.37;101862.44;5093994;28;20028;-41
2021/03/26 02:54:48;;;;;;;32.05;23.73;;;;;;;6.05;86.01;101869.00;5093889;28;20028;-41
2021/03/26 02:57:19;;;;;;;30.08;22.10;;;;;;;6.07;86.21;101858.94;5093280;28;20032;-41
2021/03/26 03:00:11;;;;;;;29.70;21.45;;;;;;;6.07;85.80;101859.75;5093844;28;20029;-41
2021/03/26 03:02:41;;;;;;;30.23;24.00;;;;;;;6.08;86.29;101856.06;5093142;28;20086;-41
2021/03/26 03:05:37;;;;;;;28.10;21.88;;;;;;;6.15;86.25;101853.53;5093762;28;20082;-41
2021/03/26 03:08:10;;;;;;;27.25;21.88;;;;;;;6.18;85.84;101847.78;5094149;28;20024;-41
2021/03/26 03:10:46;;;;;;;31.50;23.85;;;;;;;6.21;86.12;101844.75;5094025;28;20046;-41
2021/03/26 03:13:20;;;;;;;30.65;23.60;;;;;;;6.22;86.33;101838.34;5093752;28;20020;-41
2021/03/26 03:15:55;;;;;;;29.73;22.08;;;;;;;6.21;86.38;101841.22;5093358;28;20032;-41
2021/03/26 03:18:33;;;;;;;32.22;24.25;;;;;;;6.19;86.04;101834.16;5093357;28;20103;-41
2021/03/26 03:21:08;;;;;;;31.02;24.02;;;;;;;6.19;86.60;101836.84;5093579;28;20028;-41
2021/03/26 03:23:46;;;;;;;30.00;23.80;;;;;;;6.19;86.60;101833.31;5095855;28;20024;-41
2021/03/26 03:26:50;;;;;;;29.20;23.80;;;;;;;6.19;85.96;101831.47;5097288;28;20052;-41
2021/03/26 03:29:15;;;;;;;31.15;23.23;;;;;;;6.19;86.29;101836.00;5054964;28;20033;-41
2021/03/26 03:31:49;;;;;;;30.33;23.27;;;;;;;6.19;85.95;101831.47;5054861;28;20052;-41
2021/03/26 03:34:30;;;;;;;31.25;24.33;;;;;;;6.18;86.44;101837.88;5055401;28;20447;-41
2021/03/26 03:37:07;;;;;;;31.90;23.98;;;;;;;6.16;86.88;101833.72;5054571;28;20048;-41
2021/03/26 03:40:00;;;;;;;33.28;23.92;;;;;;;6.13;86.96;101836.72;5054781;28;20425;-41
2021/03/26 03:42:42;;;;;;;29.23;23.08;;;;;;;6.16;86.48;101844.44;4956423;29;20472;-41
2021/03/26 03:45:22;;;;;;;27.63;22.63;;;;;;;6.16;86.79;101839.06;4956782;29;20051;-41
2021/03/26 03:48:14;;;;;;;29.17;23.27;;;;;;;6.09;86.69;101838.94;4956535;29;20050;-41
2021/03/26 03:51:19;;;;;;;31.05;23.77;;;;;;;6.07;86.95;101834.75;4956777;29;20376;-41
2021/03/26 03:53:51;;;;;;;31.17;23.17;;;;;;;6.08;86.92;101836.44;4955620;29;20035;-41
2021/03/26 03:56:45;;;;;;;30.77;23.90;;;;;;;6.07;86.93;101840.13;4956244;29;20039;-41
2021/03/26 03:59:19;;;;;;;29.98;24.15;;;;;;;6.07;86.72;101840.13;4956452;29;20035;-41
2021/03/26 04:01:51;;;;;;;30.77;24.23;;;;;;;6.09;87.19;101835.41;4956850;29;20042;-40
2021/03/26 04:04:23;;;;;;;30.33;23.80;;;;;;;6.12;87.00;101835.06;4956037;29;20035;-40
2021/03/26 04:06:59;;;;;;;30.90;23.92;;;;;;;6.15;87.06;101834.72;5005429;28;20049;-40
2021/03/26 04:09:33;;;;;;;31.13;23.85;;;;;;;6.16;86.98;101823.78;5014335;28;20042;-40
2021/03/26 04:12:03;;;;;;;29.77;23.08;;;;;;;6.22;86.67;101824.94;5014692;28;20034;-40
2021/03/26 04:14:37;;;;;;;31.42;24.08;;;;;;;6.23;86.79;101813.16;5014967;28;20407;-40
2021/03/26 04:17:13;;;;;;;29.20;23.85;;;;;;;6.25;86.80;101816.53;5014233;28;20137;-40
2021/03/26 04:19:44;;;;;;;31.97;25.17;;;;;;;6.27;86.82;101810.97;5059496;28;20504;-40
2021/03/26 04:22:25;;;;;;;32.10;23.45;;;;;;;6.32;86.40;101813.94;5097220;28;20266;-40
2021/03/26 04:25:03;;;;;;;30.50;24.70;;;;;;;6.31;86.77;101815.81;5096646;28;20064;-40
2021/03/26 04:27:33;;;;;;;31.33;24.23;;;;;;;6.33;86.80;101815.59;5096559;28;20036;-40
2021/03/26 04:30:11;;;;;;;33.03;23.75;;;;;;;6.36;86.16;101813.41;5096961;28;20032;-40
2021/03/26 04:32:37;;;;;;;29.98;23.35;;;;;;;6.38;86.23;101805.16;5096139;28;20423;-41
2021/03/26 04:35:05;;;;;;;29.67;22.77;;;;;;;6.40;86.71;101803.97;5095191;28;20036;-40
2021/03/26 04:37:38;;;;;;;29.98;23.52;;;;;;;6.42;86.23;101801.94;5095974;28;20063;-40
2021/03/26 04:40:21;;;;;;;32.35;23.65;;;;;;;6.47;86.25;101800.56;5096336;28;20042;-40
2021/03/26 04:42:54;;;;;;;31.23;23.98;;;;;;;6.44;86.25;101799.91;5096081;28;20020;-41
2021/03/26 04:45:45;;;;;;;30.98;24.38;;;;;;;6.48;85.99;101799.53;5096425;28;20059;-40
2021/03/26 04:48:21;;;;;;;31.05;24.88;;;;;;;6.48;86.23;101799.53;5096731;28;20103;-40
2021/03/26 04:51:21;;;;;;;32.65;24.10;;;;;;;6.52;86.10;101795.47;5096142;28;20036;-40
2021/03/26 04:54:17;;;;;;;30.45;22.55;;;;;;;6.53;86.04;101778.34;5096092;28;20024;-40
2021/03/26 04:56:47;;;;;;;31.50;23.02;;;;;;;6.54;85.49;101783.56;5095473;28;20024;-40
2021/03/26 04:59:15;;;;;;;30.48;23.15;;;;;;;6.53;85.48;101789.91;5096016;28;20143;-40
2021/03/26 05:01:43;;;;;;;31.80;24.52;;;;;;;6.55;85.53;101779.00;5095875;28;20024;-40
2021/03/26 05:04:20;;;;;;;33.33;25.83;;;;;;;6.53;85.41;101789.09;5095277;28;20074;-40
2021/03/26 05:06:59;;;;;;;30.25;22.67;;;;;;;6.56;85.59;101786.03;5095821;28;20082;-40
2021/03/26 05:09:28;;;;;;;31.98;23.17;;;;;;;6.56;84.81;101781.50;5095814;28;20027;-40
2021/03/26 05:11:59;;;;;;;28.08;21.23;;;;;;;6.60;85.10;101790.88;5095793;28;20119;-40
2021/03/26 05:14:29;;;;;;;30.10;22.13;;;;;;;6.59;84.26;101785.69;5095945;28;20372;-40
2021/03/26 05:17:08;;;;;;;29.45;23.55;;;;;;;6.59;85.16;101791.06;5095255;28;20028;-41
2021/03/26 05:19:36;;;;;;;31.23;23.83;;;;;;;6.57;84.51;101785.84;5095625;28;20039;-40
2021/03/26 05:22:40;;;;;;;28.25;22.08;;;;;;;6.58;84.71;101784.00;5095163;28;20120;-40
2021/03/26 05:25:20;;;;;;;30.42;23.98;;;;;;;6.55;84.64;101785.22;5095148;28;20107;-40
2021/03/26 05:27:46;;;;;;;29.08;22.17;;;;;;;6.55;84.58;101774.47;5095426;28;20031;-40
2021/03/26 05:30:22;;;;;;;29.27;23.05;;;;;;;6.54;84.87;101771.94;5095413;28;20024;-41
2021/03/26 05:32:57;;;;;;;32.30;22.92;;;;;;;6.55;84.62;101784.38;5094552;28;20098;-40
2021/03/26 05:35:32;;;;;;;31.40;23.20;;;;;;;6.54;84.72;101770.13;5095498;28;20024;-40
2021/03/26 05:37:58;;;;;;;28.70;21.60;;;;;;;6.58;83.76;101768.72;5095479;28;20039;-40
2021/03/26 05:40:47;;;;;;;31.17;22.17;;;;;;;6.57;84.41;101772.41;5095187;28;20051;-40
2021/03/26 05:43:37;;;;;;;31.67;23.90;;;;;;;6.53;84.06;101771.09;5095320;28;20321;-40
2021/03/26 05:46:17;;;;;;;33.67;24.00;;;;;;;6.55;84.90;101770.94;5094642;28;20480;-41
2021/03/26 05:49:21;;;;;;;33.75;24.50;;;;;;;6.57;84.19;101768.91;5095011;28;20027;-40
2021/03/26 05:52:01;;;;;;;32.97;23.83;;;;;;;6.56;83.90;101769.91;5087070;28;20114;-40
2021/03/26 05:55:01;;;;;;;30.65;22.55;;;;;;;6.62;84.21;101777.25;5094916;28;20016;-40
2021/03/26 05:57:40;;;;;;;31.48;21.83;;;;;;;6.66;83.24;101768.63;5095080;28;20024;-41
2021/03/26 06:00:30;;;;;;;28.27;22.13;;;;;;;6.69;83.88;101768.28;5093566;28;20353;-40
2021/03/26 06:02:55;;;;;;;31.00;22.50;;;;;;;6.69;83.53;101773.66;5094530;28;20024;-40
2021/03/26 06:05:34;;;;;;;31.57;23.37;;;;;;;6.71;83.70;101771.63;5094106;28;20114;-40
2021/03/26 06:08:23;;;;;;;31.67;24.48;;;;;;;6.68;83.92;101769.28;5094646;28;20028;-40
2021/03/26 06:10:51;;;;;;;33.90;24.48;;;;;;;6.67;83.78;101772.16;5094349;28;20028;-40
2021/03/26 06:13:40;;;;;;;27.02;21.50;;;;;;;6.71;83.16;101770.78;5094492;28;20032;-40
2021/03/26 06:16:18;;;;;;;29.48;22.92;;;;;;;6.68;83.22;101768.44;5095022;28;20036;-40
2021/03/26 06:19:11;;;;;;;32.80;24.45;;;;;;;6.68;83.27;101771.13;5094172;28;20024;-40
2021/03/26 06:21:55;;;;;;;32.20;24.67;;;;;;;6.70;83.51;101764.56;5094572;28;20452;-40
2021/03/26 06:24:23;;;;;;;33.70;25.38;;;;;;;6.71;83.15;101765.41;5093697;28;20031;-40
2021/03/26 06:27:25;;;;;;;34.58;24.08;;;;;;;6.75;83.15;101771.25;5094383;28;20044;-40
2021/03/26 06:30:05;;;;;;;31.17;24.02;;;;;;;6.78;83.69;101763.63;5093970;28;20024;-40
2021/03/26 06:33:08;;;;;;;34.22;25.30;;;;;;;6.81;83.31;101757.06;5094216;28;20100;-40
2021/03/26 06:35:58;;;;;;;34.53;25.35;;;;;;;6.85;83.15;101758.38;5094173;28;20110;-41
2021/03/26 06:38:43;;;;;;;30.73;23.77;;;;;;;6.85;82.84;101753.84;5094131;28;20106;-42
2021/03/26 06:41:18;;;;;;;33.75;23.92;;;;;;;6.89;82.57;101757.84;5086472;28;20036;-41
2021/03/26 06:44:13;;;;;;;34.08;24.08;;;;;;;6.95;82.85;101759.78;5093832;28;20053;-41
2021/03/26 06:47:12;;;;;;;32.72;23.48;;;;;;;7.01;82.13;101763.56;5094327;28;20036;-40
2021/03/26 06:49:56;;;;;;;35.38;23.67;;;;;;;7.04;81.91;101757.84;5093902;28;20028;-41
2021/03/26 06:52:48;;;;;;;34.92;24.33;;;;;;;7.06;82.42;101763.03;5093628;28;20118;-41
2021/03/26 06:55:43;;;;;;;31.17;23.98;;;;;;;7.10;81.63;101758.94;5094494;28;20164;-41
2021/03/26 06:58:48;;;;;;;31.25;23.13;;;;;;;7.12;82.02;101751.50;5093666;28;20027;-40
2021/03/26 07:01:37;;;;;;;32.55;22.85;;;;;;;7.12;82.10;101754.19;5093321;28;20037;-41
2021/03/26 07:04:08;;;;;;;31.75;24.00;;;;;;;7.14;80.79;101755.69;5093857;28;20035;-41
2021/03/26 07:07:15;;;;;;;29.40;23.42;;;;;;;7.17;81.56;101758.03;5094353;28;20059;-41
2021/03/26 07:09:58;;;;;;;31.98;23.75;;;;;;;7.29;81.22;101760.25;5093523;28;20042;-41
2021/03/26 07:12:45;;;;;;;32.08;24.10;;;;;;;7.38;80.77;101754.56;5093898;28;20020;-41
2021/03/26 07:15:23;;;;;;;34.95;24.27;;;;;;;7.53;80.34;101757.25;5093589;28;20024;-40
2021/03/26 07:17:51;;;;;;;31.00;24.15;;;;;;;7.63;80.47;101754.25;5094333;28;20463;-41
2021/03/26 07:20:16;;;;;;;29.58;22.00;;;;;;;7.75;79.61;101758.94;5093353;28;20077;-40
2021/03/26 07:23:12;;;;;;;28.50;22.70;;;;;;;7.87;79.60;101764.66;5093907;28;20511;-40
2021/03/26 07:26:02;;;;;;;29.38;22.00;;;;;;;7.98;78.89;101758.78;5093019;28;20052;-41
2021/03/26 07:28:37;;;;;;;28.98;21.17;;;;;;;8.08;78.28;101758.44;5092380;28;20392;-40
2021/03/26 07:31:27;;;;;;;28.33;20.38;;;;;;;8.18;78.79;101750.06;5093943;28;20028;-41
2021/03/26 07:34:11;;;;;;;29.02;22.25;;;;;;;8.26;77.86;101756.16;5094169;28;20111;-40
2021/03/26 07:36:55;;;;;;;26.40;20.38;;;;;;;8.34;77.01;101744.38;5093363;28;20032;-40
2021/03/26 07:39:42;;;;;;;28.55;21.27;;;;;;;8.43;75.96;101755.91;5093257;28;20028;-40
2021/03/26 07:42:12;;;;;;;32.35;20.98;;;;;;;8.46;75.30;101752.81;5093171;28;20032;-41
2021/03/26 07:44:55;;;;;;;27.08;20.70;;;;;;;8.54;75.63;101747.31;5093510;28;20044;-41
2021/03/26 07:47:44;;;;;;;26.13;20.80;;;;;;;8.67;75.43;101757.34;5093180;28;20028;-40
2021/03/26 07:50:28;;;;;;;26.98;21.40;;;;;;;8.74;75.04;101758.22;5093173;28;20488;-41
2021/03/26 07:53:24;;;;;;;28.85;19.98;;;;;;;8.84;75.55;101749.78;5093651;28;20032;-41
2021/03/26 07:56:10;;;;;;;26.75;20.77;;;;;;;8.98;74.70;101757.78;5093182;28;20036;-41
2021/03/26 07:58:52;;;;;;;23.50;18.77;;;;;;;9.09;74.36;101750.16;5093112;28;20031;-41
2021/03/26 08:01:33;;;;;;;25.92;20.30;;;;;;;9.18;73.10;101759.75;5093382;28;20107;-41
2021/03/26 08:04:20;;;;;;;22.08;16.95;;;;;;;9.30;72.93;101755.44;5093106;28;20032;-42
2021/03/26 08:07:23;;;;;;;22.85;18.13;;;;;;;9.37;72.52;101750.91;5092977;28;20081;-41
2021/03/26 08:10:04;;;;;;;22.83;18.30;;;;;;;9.50;72.92;101745.56;5093574;28;20024;-42
2021/03/26 08:12:36;;;;;;;24.33;18.88;;;;;;;9.55;71.55;101742.25;5097295;28;20420;-41
2021/03/26 08:15:21;;;;;;;21.05;17.55;;;;;;;9.60;70.86;101755.16;5096652;28;20028;-40
2021/03/26 08:18:24;;;;;;;23.02;17.40;;;;;;;9.66;71.74;101744.38;5096875;28;20017;-40
2021/03/26 08:21:16;;;;;;;21.38;16.88;;;;;;;9.76;69.97;101749.38;5096238;28;20107;-41
2021/03/26 08:24:02;;;;;;;20.90;17.33;;;;;;;9.80;69.30;101748.75;5096471;28;20093;-41
2021/03/26 08:26:36;;;;;;;22.65;17.02;;;;;;;9.92;69.99;101743.63;5097237;28;20070;-41
2021/03/26 08:29:24;;;;;;;20.85;16.52;;;;;;;10.00;68.97;101746.13;5096306;28;20063;-40
2021/03/26 08:32:07;;;;;;;23.23;17.50;;;;;;;10.20;68.93;101742.59;5096831;28;20024;-40
2021/03/26 08:34:50;;;;;;;22.05;16.63;;;;;;;10.39;69.37;101747.22;5096354;28;20032;-41
2021/03/26 08:37:25;;;;;;;21.30;15.98;;;;;;;10.40;67.20;101748.91;5097019;28;20406;-40
2021/03/26 08:39:55;;;;;;;19.08;15.30;;;;;;;10.39;67.09;101743.69;5096634;28;20039;-41
2021/03/26 08:42:35;;;;;;;19.30;15.38;;;;;;;10.49;68.31;101744.97;5095742;28;20032;-41
2021/03/26 08:45:09;;;;;;;18.85;15.48;;;;;;;10.49;66.67;101744.97;5095766;28;20032;-41
2021/03/26 08:47:45;;;;;;;19.40;15.40;;;;;;;10.50;67.02;101737.69;5095962;28;20020;-40
2021/03/26 08:50:24;;;;;;;19.10;15.63;;;;;;;10.63;67.26;101742.22;5095500;28;20413;-41
2021/03/26 08:53:27;;;;;;;18.92;15.05;;;;;;;10.71;67.61;101736.59;5095572;28;20053;-41
2021/03/26 08:56:21;;;;;;;22.23;14.85;;;;;;;10.74;67.25;101733.50;5053432;28;20048;-41
2021/03/26 08:59:20;;;;;;;18.58;14.05;;;;;;;10.76;66.04;101731.41;5053277;28;20127;-41
2021/03/26 09:01:48;;;;;;;17.75;13.40;;;;;;;10.81;65.45;101718.91;5053331;28;20025;-41
2021/03/26 09:04:23;;;;;;;16.73;12.48;;;;;;;10.86;65.70;101718.25;5053343;28;20136;-41
2021/03/26 09:06:57;;;;;;;16.10;13.35;;;;;;;10.92;65.11;101732.81;5053607;28;20492;-40
2021/03/26 09:09:40;;;;;;;18.33;13.13;;;;;;;10.97;65.78;101724.91;5053799;28;20115;-41
2021/03/26 09:12:24;;;;;;;17.70;13.02;;;;;;;11.02;65.29;101727.78;5053743;28;20033;-40
2021/03/26 09:15:10;;;;;;;16.58;11.73;;;;;;;11.03;64.65;101727.59;5053157;28;20025;-41
2021/03/26 09:17:47;;;;;;;16.00;11.97;;;;;;;11.11;64.82;101726.53;5052845;28;20104;-41
2021/03/26 09:20:21;;;;;;;15.23;11.35;;;;;;;11.17;64.38;101736.50;5052618;28;20159;-41
2021/03/26 09:23:25;;;;;;;14.57;11.13;;;;;;;11.21;64.42;101726.91;5053041;28;20025;-41
2021/03/26 09:26:07;;;;;;;13.27;10.10;;;;;;;11.25;64.10;101727.31;5052634;28;20044;-40
2021/03/26 09:28:43;;;;;;;18.27;10.77;;;;;;;11.22;64.14;101719.59;5053396;28;20024;-41
2021/03/26 09:31:20;;;;;;;15.33;10.50;;;;;;;11.25;63.90;101735.44;5053170;28;20135;-41
2021/03/26 09:34:02;;;;;;;15.00;10.07;;;;;;;11.25;63.73;101717.31;5092882;28;20071;-41
2021/03/26 09:36:34;;;;;;;15.38;10.43;;;;;;;11.19;63.82;101723.59;5094783;28;20040;-41
2021/03/26 09:39:12;;;;;;;14.05;10.55;;;;;;;11.17;64.11;101719.41;5094751;28;20024;-41
2021/03/26 09:42:04;;;;;;;15.50;9.65;;;;;;;11.27;63.95;101725.22;5095409;28;20550;-41
2021/03/26 09:44:37;;;;;;;13.52;9.90;;;;;;;11.28;63.52;101725.03;5095160;28;20067;-40
2021/03/26 09:47:11;;;;;;;15.93;10.13;;;;;;;11.26;62.66;101726.25;5094543;28;20030;-41
2021/03/26 09:49:46;;;;;;;11.38;8.77;;;;;;;11.27;63.32;101725.22;5094842;28;20430;-41
2021/03/26 09:52:14;;;;;;;12.50;8.77;;;;;;;11.26;62.43;101715.44;5094994;28;20082;-41
2021/03/26 09:54:52;;;;;;;15.25;8.60;;;;;;;11.27;62.84;101722.50;5094672;28;20059;-41
2021/03/26 09:57:39;;;;;;;15.23;8.50;;;;;;;11.24;61.89;101717.53;5094526;28;20111;-41
2021/03/26 10:00:36;;;;;;;13.85;9.00;;;;;;;11.21;61.94;101726.06;5094917;28;20464;-41
2021/03/26 10:03:05;;;;;;;11.20;7.72;;;;;;;11.23;62.19;101714.00;5095326;28;20066;-41
2021/03/26 10:05:30;;;;;;;10.55;7.90;;;;;;;11.28;62.48;101713.38;5094446;28;20027;-41
2021/03/26 10:08:21;;;;;;;10.97;7.90;;;;;;;11.32;62.09;101717.28;5094430;28;20028;-41
2021/03/26 10:10:48;;;;;;;9.73;7.03;;;;;;;11.36;61.29;101713.09;5094972;28;20031;-41
2021/03/26 10:13:21;;;;;;;12.45;7.40;;;;;;;11.44;61.80;101712.88;5094329;28;20040;-41
2021/03/26 10:16:19;;;;;;;10.55;6.38;;;;;;;11.52;60.48;101706.38;5094817;28;20472;-42
2021/03/26 10:18:48;;;;;;;;;;;;;;;11.58;60.41;101700.91;5052256;28;20278;-42
2021/03/26 10:21:21;;;;;;;10.07;6.68;;;;;;;11.62;60.54;101701.31;5051970;28;20376;-41
2021/03/26 10:23:49;;;;;;;8.98;6.20;;;;;;;11.68;60.22;101695.03;5051764;28;20045;-41
2021/03/26 10:26:36;;;;;;;7.97;5.80;;;;;;;11.75;60.08;101686.84;5051505;28;20052;-41
2021/03/26 10:29:16;;;;;;;10.35;6.50;;;;;;;11.84;59.41;101694.53;5051592;28;20041;-41
2021/03/26 10:31:46;;;;;;;8.77;5.53;;;;;;;11.96;59.05;101681.13;5051811;28;20033;-41
2021/03/26 10:34:16;;;;;;;9.35;5.53;;;;;;;12.11;59.74;101676.22;5050907;28;20061;-41
2021/03/26 10:36:50;;;;;;;9.18;5.13;;;;;;;12.12;56.97;101668.91;5051572;28;20102;-41
2021/03/26 10:39:30;;;;;;;6.82;4.10;;;;;;;12.21;56.91;101672.16;5034908;28;20032;-41
2021/03/26 10:42:09;;;;;;;8.25;4.22;;;;;;;12.34;55.94;101666.59;5051708;28;20049;-41
2021/03/26 10:44:51;;;;;;;8.40;3.80;;;;;;;12.53;56.26;101664.75;5051461;28;20029;-41
2021/03/26 10:47:29;;;;;;;6.72;3.58;;;;;;;12.73;55.17;101656.41;5051705;28;20029;-41
2021/03/26 10:50:22;;;;;;;7.88;3.40;;;;;;;12.88;53.72;101646.88;5051835;28;20025;-41
2021/03/26 10:52:59;;;;;;;6.13;3.25;;;;;;;12.95;52.27;101638.63;5051055;28;20531;-41
2021/03/26 10:55:28;;;;;;;8.50;3.28;;;;;;;13.12;53.25;101630.69;5079037;28;20105;-41
2021/03/26 10:58:07;;;;;;;6.68;3.10;;;;;;;13.27;52.45;101633.84;5093302;28;20024;-41
2021/03/26 11:00:36;;;;;;;6.15;3.13;;;;;;;13.41;51.61;101634.50;5094037;28;20366;-41
2021/03/26 11:03:24;;;;;;;6.18;3.05;;;;;;;13.48;51.89;101623.56;5094381;28;20024;-41
2021/03/26 11:05:55;;;;;;;12.85;4.05;;;;;;;13.65;50.75;101619.94;5094164;28;20075;-41
2021/03/26 11:08:58;;;;;;;6.68;3.03;;;;;;;13.88;49.95;101619.16;5093280;28;20468;-41
2021/03/26 11:11:29;;;;;;;6.53;2.65;;;;;;;13.64;48.88;101615.56;5093587;28;20028;-42
2021/03/26 11:13:57;;;;;;;6.43;2.38;;;;;;;13.58;49.26;101613.78;5094110;28;20055;-42
2021/03/26 11:16:33;;;;;;;8.40;2.88;;;;;;;13.76;49.38;101603.88;5093242;28;20063;-42
2021/03/26 11:19:03;;;;;;;6.10;2.45;;;;;;;13.62;47.58;101604.09;5093751;28;20151;-41
2021/03/26 11:21:43;;;;;;;6.07;2.40;;;;;;;13.42;48.52;101609.00;5093770;28;20024;-41
2021/03/26 11:24:10;;;;;;;6.68;3.03;;;;;;;13.13;49.89;101611.47;5094046;28;20020;-42
2021/03/26 11:26:50;;;;;;;6.95;3.10;;;;;;;13.07;50.93;101592.53;5094055;28;20048;-41
2021/03/26 11:29:22;;;;;;;7.15;3.40;;;;;;;12.97;50.46;101595.78;5093084;28;20028;-42
2021/03/26 11:31:58;;;;;;;5.93;2.95;;;;;;;12.84;51.06;101590.53;5093881;28;20491;-42
2021/03/26 11:34:37;;;;;;;8.60;3.60;;;;;;;13.01;51.99;101590.72;5093945;28;20032;-41
2021/03/26 11:37:12;;;;;;;4.88;2.90;;;;;;;13.18;52.61;101586.34;5093406;28;20262;-41
2021/03/26 11:39:50;;;;;;;6.95;3.13;;;;;;;13.35;50.96;101578.38;5093820;28;20409;-41
2021/03/26 11:42:16;;;;;;;8.40;3.40;;;;;;;13.58;50.35;101573.00;5093247;28;20021;-41
2021/03/26 11:45:34;;;;;;;8.10;4.03;;;;;;;13.86;50.65;101564.19;5095905;28;20354;-41
2021/03/26 11:48:08;;;;;;;;;;;;;;;14.07;48.95;101572.84;5055138;28;20029;-41
2021/03/26 11:50:58;;;;;;;7.07;3.75;;;;;;;13.89;49.67;101571.03;5055192;28;20054;-41
2021/03/26 11:53:28;;;;;;;5.53;3.47;;;;;;;13.91;49.38;101564.31;5038496;28;20182;-41
2021/03/26 11:56:29;;;;;;;7.55;3.53;;;;;;;13.98;49.38;101569.63;5055204;28;20090;-41
2021/03/26 11:59:13;;;;;;;6.43;3.83;;;;;;;13.89;51.10;101563.72;5054340;28;20033;-41
2021/03/26 12:01:53;;;;;;;8.15;3.60;;;;;;;13.69;51.21;101562.41;5054549;28;20044;-41
2021/03/26 12:04:29;;;;;;;7.40;4.20;;;;;;;13.77;51.36;101564.78;5054144;28;20040;-41